createdAt,value
2022-12-01T00:01:24.350Z,102118.47
2022-12-01T00:03:54.711Z,102122.88
2022-12-01T00:06:24.660Z,102126.25
2022-12-01T00:09:10.910Z,102122.19
2022-12-01T00:11:42.959Z,102122.22
2022-12-01T00:14:13.441Z,102124.34
2022-12-01T00:16:44.590Z,102119.88
2022-12-01T00:19:15.129Z,102118.06
2022-12-01T00:21:45.095Z,102121.06
2022-12-01T00:24:18.003Z,102119.47
2022-12-01T00:26:48.031Z,102119.88
2022-12-01T00:29:18.522Z,102113.22
2022-12-01T00:31:48.705Z,102121.72
2022-12-01T00:34:25.492Z,102117.81
2022-12-01T00:36:55.448Z,102116.38
2022-12-01T00:39:28.669Z,102114.50
2022-12-01T00:41:58.666Z,102121.09
2022-12-01T00:44:28.970Z,102118.97
2022-12-01T00:46:58.894Z,102126.50
2022-12-01T00:49:29.162Z,102116.88
2022-12-01T00:51:59.321Z,102116.34
2022-12-01T00:54:32.982Z,102122.63
2022-12-01T00:57:03.266Z,102126.94
2022-12-01T00:59:33.747Z,102124.88
2022-12-01T01:02:04.629Z,102125.97
2022-12-01T01:04:36.967Z,102122.75
2022-12-01T01:07:07.230Z,102123.50
2022-12-01T01:09:40.669Z,102124.28
2022-12-01T01:12:11.175Z,102126.16
2022-12-01T01:14:41.805Z,102128.22
2022-12-01T01:17:12.042Z,102125.75
2022-12-01T01:19:42.619Z,102125.13
2022-12-01T01:22:12.849Z,102135.00
2022-12-01T01:24:46.029Z,102126.66
2022-12-01T01:27:16.249Z,102129.78
2022-12-01T01:29:47.208Z,102131.34
2022-12-01T01:32:17.814Z,102132.94
2022-12-01T01:34:48.470Z,102132.03
2022-12-01T01:37:18.796Z,102129.66
2022-12-01T01:39:52.008Z,102129.84
2022-12-01T01:42:22.766Z,102127.56
2022-12-01T01:44:55.957Z,102128.72
2022-12-01T01:47:29.536Z,102128.50
2022-12-01T01:50:06.631Z,102129.38
2022-12-01T01:52:39.219Z,102129.72
2022-12-01T01:55:12.846Z,102133.78
2022-12-01T01:57:44.491Z,102141.44
2022-12-01T02:00:18.968Z,102133.13
2022-12-01T02:02:51.538Z,102123.50
2022-12-01T02:05:25.490Z,102131.88
2022-12-01T02:07:58.677Z,102127.56
2022-12-01T02:10:40.787Z,102124.91
2022-12-01T02:13:17.405Z,102128.03
2022-12-01T02:15:56.499Z,102120.91
2022-12-01T02:18:39.558Z,102119.72
2022-12-01T02:21:32.376Z,102106.25
2022-12-01T02:24:36.683Z,102109.75
2022-12-01T02:27:14.626Z,102106.38
2022-12-01T02:30:09.638Z,102111.44
2022-12-01T02:33:03.232Z,102111.44
2022-12-01T02:35:39.569Z,102117.56
2022-12-01T02:38:17.299Z,102109.97
2022-12-01T02:40:54.193Z,102109.81
2022-12-01T02:43:31.080Z,102114.41
2022-12-01T02:46:05.402Z,102114.63
2022-12-01T02:48:41.289Z,102112.22
2022-12-01T02:51:17.357Z,102111.03
2022-12-01T02:53:48.161Z,102110.72
2022-12-01T02:56:18.685Z,102109.25
2022-12-01T02:58:49.032Z,102109.59
2022-12-01T03:01:38.863Z,102105.09
2022-12-01T03:04:29.544Z,102106.91
2022-12-01T03:07:17.523Z,102100.59
2022-12-01T03:09:57.826Z,102106.25
2022-12-01T03:12:36.361Z,102109.09
2022-12-01T03:15:12.978Z,102104.22
2022-12-01T03:17:50.010Z,102106.75
2022-12-01T03:20:31.636Z,102107.16
2022-12-01T03:23:09.646Z,102107.50
2022-12-01T03:25:42.935Z,102111.03
2022-12-01T03:28:23.149Z,102106.78
2022-12-01T03:30:58.825Z,102110.97
2022-12-01T03:33:34.234Z,102113.75
2022-12-01T03:36:15.077Z,102109.63
2022-12-01T03:38:48.437Z,102111.22
2022-12-01T03:41:22.845Z,102114.81
2022-12-01T03:43:58.648Z,102109.84
2022-12-01T03:46:41.081Z,102113.91
2022-12-01T03:49:11.885Z,102112.03
2022-12-01T03:51:55.395Z,102112.97
2022-12-01T03:54:36.405Z,102118.06
2022-12-01T03:57:11.214Z,102121.03
2022-12-01T03:59:43.749Z,102125.41
2022-12-01T04:02:14.925Z,102110.53
2022-12-01T04:04:44.951Z,102119.47
2022-12-01T04:07:17.925Z,102115.28
2022-12-01T04:09:48.217Z,102110.34
2022-12-01T04:12:31.609Z,102117.50
2022-12-01T04:15:03.330Z,102119.41
2022-12-01T04:17:34.312Z,102121.75
2022-12-01T04:20:06.528Z,102122.44
2022-12-01T04:22:39.561Z,102126.53
2022-12-01T04:25:10.608Z,102121.25
2022-12-01T04:27:42.066Z,102125.00
2022-12-01T04:30:13.627Z,102118.66
2022-12-01T04:32:45.960Z,102122.13
2022-12-01T04:35:16.173Z,102116.41
2022-12-01T04:37:49.338Z,102122.13
2022-12-01T04:40:19.946Z,102121.94
2022-12-01T04:42:50.546Z,102125.28
2022-12-01T04:45:20.769Z,102121.22
2022-12-01T04:47:51.358Z,102126.19
2022-12-01T04:50:21.687Z,102134.69
2022-12-01T04:52:54.918Z,102136.94
2022-12-01T04:55:25.840Z,102137.44
2022-12-01T04:57:56.380Z,102140.78
2022-12-01T05:00:26.917Z,102139.09
2022-12-01T05:02:57.759Z,102146.09
2022-12-01T05:05:27.737Z,102141.13
2022-12-01T05:08:01.330Z,102140.81
2022-12-01T05:10:31.307Z,102136.88
2022-12-01T05:13:02.438Z,102136.28
2022-12-01T05:15:32.405Z,102141.16
2022-12-01T05:18:02.756Z,102147.22
2022-12-01T05:21:00.010Z,102148.38
2022-12-01T05:23:35.275Z,102145.88
2022-12-01T05:26:07.231Z,102143.97
2022-12-01T05:28:38.761Z,102145.94
2022-12-01T05:31:08.968Z,102156.88
2022-12-01T05:33:39.246Z,102149.75
2022-12-01T05:36:09.862Z,102159.03
2022-12-01T05:38:42.732Z,102156.97
2022-12-01T05:41:13.553Z,102156.47
2022-12-01T05:43:43.840Z,102161.41
2022-12-01T05:46:13.808Z,102160.69
2022-12-01T05:48:45.159Z,102164.03
2022-12-01T05:51:17.388Z,102165.09
2022-12-01T05:53:50.314Z,102164.19
2022-12-01T05:56:20.327Z,102154.75
2022-12-01T05:58:50.583Z,102157.91
2022-12-01T06:01:20.688Z,102156.41
2022-12-01T06:03:50.990Z,102158.56
2022-12-01T06:06:21.005Z,102154.19
2022-12-01T06:08:53.974Z,102156.22
2022-12-01T06:11:24.089Z,102153.84
2022-12-01T06:13:54.325Z,102151.19
2022-12-01T06:16:24.339Z,102158.81
2022-12-01T06:18:54.689Z,102160.38
2022-12-01T06:21:24.550Z,102153.81
2022-12-01T06:23:57.483Z,102171.88
2022-12-01T06:26:27.395Z,102164.66
2022-12-01T06:28:59.149Z,102177.00
2022-12-01T06:31:29.070Z,102166.34
2022-12-01T06:33:59.623Z,102166.47
2022-12-01T06:36:29.659Z,102174.66
2022-12-01T06:39:02.536Z,102177.38
2022-12-01T06:41:32.461Z,102173.06
2022-12-01T06:44:03.983Z,102171.56
2022-12-01T06:46:34.059Z,102168.00
2022-12-01T06:49:04.396Z,102179.03
2022-12-01T06:51:34.429Z,102170.69
2022-12-01T06:54:07.773Z,102178.38
2022-12-01T06:56:37.611Z,102175.53
2022-12-01T06:59:08.065Z,102175.41
2022-12-01T07:01:46.820Z,102178.81
2022-12-01T07:04:22.327Z,102176.28
2022-12-01T07:06:55.532Z,102171.03
2022-12-01T07:09:28.705Z,102176.13
2022-12-01T07:11:58.906Z,102178.78
2022-12-01T07:14:31.622Z,102186.31
2022-12-01T07:17:02.009Z,102182.28
2022-12-01T07:19:33.959Z,102183.56
2022-12-01T07:22:04.195Z,102190.44
2022-12-01T07:24:37.482Z,102190.72
2022-12-01T07:27:07.817Z,102204.47
2022-12-01T07:29:38.474Z,102199.72
2022-12-01T07:32:08.729Z,102201.03
2022-12-01T07:34:39.252Z,102200.13
2022-12-01T07:37:09.533Z,102206.09
2022-12-01T07:39:42.456Z,102197.44
2022-12-01T07:42:12.359Z,102203.75
2022-12-01T07:44:42.716Z,102203.88
2022-12-01T07:47:13.550Z,102205.59
2022-12-01T07:49:43.803Z,102205.47
2022-12-01T07:52:13.718Z,102208.97
2022-12-01T07:54:46.563Z,102209.00
2022-12-01T07:57:18.200Z,102211.56
2022-12-01T07:59:48.939Z,102204.13
2022-12-01T08:02:19.117Z,102212.72
2022-12-01T08:04:49.796Z,102215.84
2022-12-01T08:07:29.674Z,102212.81
2022-12-01T08:10:03.083Z,102220.38
2022-12-01T08:12:33.090Z,102213.16
2022-12-01T08:15:03.423Z,102217.22
2022-12-01T08:17:33.379Z,102207.25
2022-12-01T08:20:04.118Z,102218.56
2022-12-01T08:22:34.840Z,102216.75
2022-12-01T08:25:08.609Z,102215.59
2022-12-01T08:27:42.497Z,102216.22
2022-12-01T08:30:13.684Z,102216.69
2022-12-01T08:32:43.772Z,102220.63
2022-12-01T08:35:14.205Z,102213.16
2022-12-01T08:37:44.167Z,102220.94
2022-12-01T08:40:17.784Z,102217.97
2022-12-01T08:42:48.508Z,102221.09
2022-12-01T08:45:19.034Z,102220.84
2022-12-01T08:47:49.056Z,102224.94
2022-12-01T08:50:19.767Z,102223.88
2022-12-01T08:52:49.722Z,102220.25
2022-12-01T08:55:22.600Z,102215.72
2022-12-01T08:57:52.532Z,102211.34
2022-12-01T09:00:22.964Z,102216.63
2022-12-01T09:02:53.037Z,102215.50
2022-12-01T09:05:23.335Z,102219.72
2022-12-01T09:08:13.331Z,102227.09
2022-12-01T09:10:54.019Z,102220.84
2022-12-01T09:13:24.005Z,102222.09
2022-12-01T09:15:59.049Z,102221.28
2022-12-01T09:18:29.275Z,102221.19
2022-12-01T09:21:00.191Z,102212.31
2022-12-01T09:23:30.154Z,102224.56
2022-12-01T09:26:03.441Z,102226.72
2022-12-01T09:28:33.418Z,102223.06
2022-12-01T09:31:07.533Z,102222.63
2022-12-01T09:33:37.798Z,102218.34
2022-12-01T09:36:10.005Z,102219.75
2022-12-01T09:38:42.002Z,102210.75
2022-12-01T09:41:20.741Z,102217.59
2022-12-01T09:43:58.111Z,102207.94
2022-12-01T09:46:34.828Z,102207.91
2022-12-01T09:49:06.689Z,102213.03
2022-12-01T09:51:38.339Z,102217.22
2022-12-01T09:54:13.758Z,102216.63
2022-12-01T09:56:50.321Z,102216.50
2022-12-01T09:59:24.285Z,102219.09
2022-12-01T10:01:59.541Z,102218.88
2022-12-01T10:04:47.180Z,102208.75
2022-12-01T10:07:24.398Z,102202.97
2022-12-01T10:09:58.621Z,102206.28
2022-12-01T10:12:35.114Z,102204.41
2022-12-01T10:15:43.746Z,102204.22
2022-12-01T10:18:27.494Z,102200.03
2022-12-01T10:21:12.466Z,102207.41
2022-12-01T10:24:07.640Z,102211.66
2022-12-01T10:26:44.881Z,102208.41
2022-12-01T10:29:27.405Z,102192.78
2022-12-01T10:31:58.930Z,102186.25
2022-12-01T10:34:31.761Z,102189.72
2022-12-01T10:37:02.423Z,102194.69
2022-12-01T10:39:37.569Z,102196.44
2022-12-01T10:42:10.746Z,102193.69
2022-12-01T10:44:45.169Z,102190.34
2022-12-01T10:47:22.668Z,102193.72
2022-12-01T10:49:53.619Z,102192.81
2022-12-01T10:52:39.182Z,102188.53
2022-12-01T10:55:29.079Z,102191.09
2022-12-01T10:58:07.678Z,102187.72
2022-12-01T11:01:01.185Z,102182.41
2022-12-01T11:03:34.470Z,102178.88
2022-12-01T11:06:08.320Z,102179.63
2022-12-01T11:08:43.052Z,102175.16
2022-12-01T11:11:28.126Z,102173.72
2022-12-01T11:14:00.516Z,102182.41
2022-12-01T11:16:43.009Z,102170.63
2022-12-01T11:19:26.819Z,102169.63
2022-12-01T11:21:59.471Z,102173.22
2022-12-01T11:24:48.321Z,102177.56
2022-12-01T11:27:21.825Z,102166.25
2022-12-01T11:29:54.143Z,102165.31
2022-12-01T11:32:30.449Z,102173.63
2022-12-01T11:35:05.015Z,102173.53
2022-12-01T11:37:41.976Z,102165.66
2022-12-01T11:40:19.518Z,102165.66
2022-12-01T11:42:52.958Z,102167.41
2022-12-01T11:45:32.352Z,102171.66
2022-12-01T11:48:08.977Z,102171.84
2022-12-01T11:50:41.261Z,102172.03
2022-12-01T11:53:29.862Z,102168.38
2022-12-01T11:56:23.207Z,102169.91
2022-12-01T11:58:59.746Z,102164.81
2022-12-01T12:01:43.251Z,102167.66
2022-12-01T12:04:31.171Z,102169.81
2022-12-01T12:07:11.260Z,102161.94
2022-12-01T12:09:54.214Z,102166.66
2022-12-01T12:12:38.864Z,102162.22
2022-12-01T12:15:23.369Z,102156.91
2022-12-01T12:18:08.550Z,102162.22
2022-12-01T12:21:01.597Z,102160.41
2022-12-01T12:23:53.103Z,102159.63
2022-12-01T12:26:27.926Z,102159.44
2022-12-01T12:29:24.786Z,102158.81
2022-12-01T12:32:10.096Z,102160.63
2022-12-01T12:34:50.671Z,102152.19
2022-12-01T12:37:46.006Z,102147.53
2022-12-01T12:40:42.413Z,102153.44
2022-12-01T12:43:27.770Z,102144.84
2022-12-01T12:46:04.874Z,102148.44
2022-12-01T12:51:47.645Z,102148.03
2022-12-01T12:54:29.213Z,102161.53
2022-12-01T12:57:04.956Z,102150.34
2022-12-01T13:00:32.269Z,102146.25
2022-12-01T13:08:53.143Z,102145.81
2022-12-01T13:11:30.096Z,102143.91
2022-12-01T13:14:06.867Z,102144.75
2022-12-01T13:16:39.616Z,102146.34
2022-12-01T13:19:16.993Z,102148.75
2022-12-01T13:21:49.347Z,102148.66
2022-12-01T13:24:23.905Z,102152.38
2022-12-01T13:27:02.013Z,102149.03
2022-12-01T13:29:46.766Z,102147.03
2022-12-01T13:32:30.628Z,102149.41
2022-12-01T13:35:02.015Z,102149.31
2022-12-01T13:37:34.927Z,102145.34
2022-12-01T13:40:22.520Z,102151.22
2022-12-01T13:43:08.900Z,102151.06
2022-12-01T13:45:43.503Z,102143.53
2022-12-01T13:48:30.761Z,102149.75
2022-12-01T13:51:03.654Z,102149.44
2022-12-01T13:53:36.715Z,102152.75
2022-12-01T13:56:39.520Z,102152.94
2022-12-01T14:00:05.686Z,102149.31
2022-12-01T14:02:38.310Z,102154.59
2022-12-01T14:05:38.916Z,102152.78
2022-12-01T14:08:22.656Z,102152.66
2022-12-01T14:10:59.680Z,102144.81
2022-12-01T14:13:31.731Z,102143.97
2022-12-01T14:16:06.951Z,102136.91
2022-12-01T14:18:39.537Z,102142.38
2022-12-01T14:21:14.671Z,102132.94
2022-12-01T14:24:04.412Z,102140.47
2022-12-01T14:26:35.279Z,102143.28
2022-12-01T14:29:28.528Z,102141.88
2022-12-01T14:32:25.841Z,102139.50
2022-12-01T14:35:06.048Z,102136.66
2022-12-01T14:37:46.025Z,102137.28
2022-12-01T14:40:31.391Z,102139.03
2022-12-01T14:43:16.481Z,102144.25
2022-12-01T14:45:58.259Z,102142.50
2022-12-01T14:48:40.346Z,102144.34
2022-12-01T14:51:19.636Z,102143.56
2022-12-01T14:53:53.094Z,102140.16
2022-12-01T14:56:26.525Z,102146.16
2022-12-01T14:58:59.322Z,102139.09
2022-12-01T15:01:35.210Z,102139.03
2022-12-01T15:04:09.019Z,102131.59
2022-12-01T15:06:40.719Z,102136.81
2022-12-01T15:12:07.864Z,102130.16
2022-12-01T15:14:39.783Z,102123.22
2022-12-01T15:17:10.177Z,102127.53
2022-12-01T15:19:44.252Z,102122.59
2022-12-01T15:22:16.495Z,102131.06
2022-12-01T15:24:47.584Z,102132.31
2022-12-01T15:27:31.813Z,102131.19
2022-12-01T15:30:04.834Z,102128.63
2022-12-01T15:32:39.610Z,102126.78
2022-12-01T15:35:22.476Z,102126.34
2022-12-01T15:37:54.289Z,102119.91
2022-12-01T15:43:21.672Z,102118.47
2022-12-01T15:45:54.306Z,102120.78
2022-12-01T15:48:31.889Z,102119.13
2022-12-01T15:51:11.246Z,102120.13
2022-12-01T15:53:52.843Z,102122.13
2022-12-01T15:56:28.925Z,102124.44
2022-12-01T15:59:04.531Z,102127.84
2022-12-01T16:01:41.609Z,102128.97
2022-12-01T16:04:32.581Z,102128.94
2022-12-01T16:07:13.638Z,102133.28
2022-12-01T16:09:45.848Z,102135.75
2022-12-01T16:12:26.809Z,102130.41
2022-12-01T16:15:06.881Z,102133.22
2022-12-01T16:17:45.258Z,102131.34
2022-12-01T16:20:22.908Z,102130.66
2022-12-01T16:22:59.869Z,102127.13
2022-12-01T16:25:39.778Z,102124.44
2022-12-01T16:28:21.242Z,102126.25
2022-12-01T16:30:52.129Z,102124.53
2022-12-01T16:33:25.609Z,102129.94
2022-12-01T16:35:59.518Z,102128.81
2022-12-01T16:38:32.512Z,102129.66
2022-12-01T16:41:16.747Z,102128.88
2022-12-01T16:44:12.451Z,102133.28
2022-12-01T16:46:41.248Z,102130.94
2022-12-01T16:49:11.893Z,102136.22
2022-12-01T16:51:55.375Z,102134.41
2022-12-01T16:54:29.259Z,102131.00
2022-12-01T16:56:59.581Z,102138.03
2022-12-01T16:59:30.977Z,102134.97
2022-12-01T17:02:01.314Z,102135.88
2022-12-01T17:04:32.691Z,102134.19
2022-12-01T17:07:02.993Z,102137.44
2022-12-01T17:09:35.459Z,102128.06
2022-12-01T17:12:08.374Z,102134.03
2022-12-01T17:14:39.581Z,102125.53
2022-12-01T17:17:10.168Z,102132.63
2022-12-01T17:19:40.367Z,102128.19
2022-12-01T17:22:10.916Z,102132.31
2022-12-01T17:24:43.775Z,102133.38
2022-12-01T17:27:14.619Z,102132.31
2022-12-01T17:29:54.082Z,102132.25
2022-12-01T17:32:24.586Z,102133.28
2022-12-01T17:34:56.114Z,102132.63
2022-12-01T17:37:27.801Z,102135.13
2022-12-01T17:40:02.216Z,102132.31
2022-12-01T17:42:33.893Z,102122.88
2022-12-01T17:45:10.248Z,102126.41
2022-12-01T17:47:40.766Z,102123.03
2022-12-01T17:50:12.600Z,102121.28
2022-12-01T17:52:43.416Z,102125.53
2022-12-01T17:55:16.629Z,102122.09
2022-12-01T17:57:47.002Z,102123.22
2022-12-01T18:00:18.357Z,102128.03
2022-12-01T18:02:50.520Z,102118.56
2022-12-01T18:05:20.720Z,102125.47
2022-12-01T18:07:51.078Z,102121.97
2022-12-01T18:10:24.109Z,102122.94
2022-12-01T18:12:54.384Z,102123.03
2022-12-01T18:15:26.533Z,102117.13
2022-12-01T18:17:58.420Z,102123.09
2022-12-01T18:20:28.497Z,102119.81
2022-12-01T18:22:58.989Z,102115.47
2022-12-01T18:25:31.714Z,102119.59
2022-12-01T18:28:02.029Z,102123.22
2022-12-01T18:30:32.355Z,102117.16
2022-12-01T18:33:03.522Z,102119.72
2022-12-01T18:35:33.425Z,102115.34
2022-12-01T18:38:03.674Z,102118.72
2022-12-01T18:40:41.357Z,102115.41
2022-12-01T18:43:12.942Z,102112.19
2022-12-01T18:45:42.914Z,102120.72
2022-12-01T18:48:13.122Z,102114.31
2022-12-01T18:50:43.337Z,102109.88
2022-12-01T18:53:13.576Z,102112.34
2022-12-01T18:55:46.502Z,102114.94
2022-12-01T18:58:16.876Z,102115.03
2022-12-01T19:00:46.854Z,102113.53
2022-12-01T19:03:17.156Z,102115.94
2022-12-01T19:05:47.301Z,102116.59
2022-12-01T19:08:17.663Z,102114.16
2022-12-01T19:11:00.942Z,102109.09
2022-12-01T19:13:32.701Z,102114.13
2022-12-01T19:16:08.656Z,102117.00
2022-12-01T19:18:39.389Z,102111.56
2022-12-01T19:21:11.813Z,102107.81
2022-12-01T19:23:42.805Z,102104.31
2022-12-01T19:26:18.938Z,102101.63
2022-12-01T19:28:50.520Z,102108.56
2022-12-01T19:31:22.714Z,102105.84
2022-12-01T19:33:54.701Z,102104.22
2022-12-01T19:36:27.361Z,102111.00
2022-12-01T19:39:00.611Z,102109.19
2022-12-01T19:41:35.030Z,102110.16
2022-12-01T19:44:05.308Z,102109.31
2022-12-01T19:46:35.979Z,102108.41
2022-12-01T19:49:07.263Z,102112.81
2022-12-01T19:51:40.213Z,102114.44
2022-12-01T19:54:13.362Z,102113.81
2022-12-01T19:56:46.805Z,102118.22
2022-12-01T19:59:20.431Z,102126.00
2022-12-01T20:02:06.744Z,102115.75
2022-12-01T20:04:40.090Z,102128.75
2022-12-01T20:07:10.331Z,102115.94
2022-12-01T20:09:46.849Z,102121.34
2022-12-01T20:12:22.473Z,102124.63
2022-12-01T20:14:53.413Z,102122.44
2022-12-01T20:17:23.710Z,102125.53
2022-12-01T20:19:54.302Z,102128.88
2022-12-01T20:22:24.878Z,102118.53
2022-12-01T20:24:55.362Z,102121.63
2022-12-01T20:27:28.335Z,102123.88
2022-12-01T20:29:59.231Z,102124.06
2022-12-01T20:32:29.820Z,102125.53
2022-12-01T20:35:01.848Z,102123.53
2022-12-01T20:37:32.086Z,102124.84
2022-12-01T20:40:02.585Z,102122.63
2022-12-01T20:42:36.873Z,102120.34
2022-12-01T20:45:08.929Z,102117.66
2022-12-01T20:47:39.162Z,102120.03
2022-12-01T20:50:10.580Z,102117.91
2022-12-01T20:52:42.065Z,102113.38
2022-12-01T20:55:12.474Z,102116.09
2022-12-01T20:57:45.794Z,102121.53
2022-12-01T21:00:42.672Z,102121.84
2022-12-01T21:03:13.243Z,102121.78
2022-12-01T21:05:57.651Z,102117.22
2022-12-01T21:08:27.814Z,102115.16
2022-12-01T21:10:58.167Z,102112.69
2022-12-01T21:13:43.119Z,102114.31
2022-12-01T21:16:24.329Z,102114.66
2022-12-01T21:19:06.506Z,102116.03
2022-12-01T21:21:53.314Z,102114.16
2022-12-01T21:24:33.177Z,102113.13
2022-12-01T21:27:15.608Z,102115.94
2022-12-01T21:29:49.856Z,102118.53
2022-12-01T21:32:29.888Z,102116.84
2022-12-01T21:35:04.503Z,102110.72
2022-12-01T21:37:50.385Z,102110.09
2022-12-01T21:40:24.628Z,102115.50
2022-12-01T21:42:55.330Z,102109.28
2022-12-01T21:45:30.309Z,102110.75
2022-12-01T21:48:09.461Z,102108.41
2022-12-01T21:50:43.281Z,102100.31
2022-12-01T21:53:16.016Z,102100.94
2022-12-01T21:55:49.335Z,102102.63
2022-12-01T21:58:29.254Z,102095.91
2022-12-01T22:01:03.151Z,102093.53
2022-12-01T22:03:35.010Z,102091.34
2022-12-01T22:06:31.627Z,102095.53
2022-12-01T22:09:04.968Z,102090.19
2022-12-01T22:11:35.180Z,102090.84
2022-12-01T22:14:15.532Z,102087.13
2022-12-01T22:16:52.112Z,102077.09
2022-12-01T22:19:28.362Z,102078.91
2022-12-01T22:22:03.796Z,102084.09
2022-12-01T22:24:41.897Z,102083.31
2022-12-01T22:27:25.139Z,102083.75
2022-12-01T22:29:59.215Z,102082.72
2022-12-01T22:32:46.927Z,102081.69
2022-12-01T22:35:42.362Z,102084.41
2022-12-01T22:38:22.236Z,102087.00
2022-12-01T22:40:58.603Z,102088.78
2022-12-01T22:43:32.107Z,102082.06
2022-12-01T22:46:14.388Z,102086.53
2022-12-01T22:48:49.434Z,102078.44
2022-12-01T22:51:26.591Z,102081.81
2022-12-01T22:54:13.506Z,102074.75
2022-12-01T22:56:45.721Z,102073.84
2022-12-01T22:59:18.517Z,102072.16
2022-12-01T23:01:54.604Z,102077.22
2022-12-01T23:04:31.228Z,102071.25
2022-12-01T23:07:12.782Z,102069.72
2022-12-01T23:09:46.035Z,102067.84
2022-12-01T23:12:27.547Z,102063.56
2022-12-01T23:15:02.007Z,102068.34
2022-12-01T23:17:38.944Z,102063.72
2022-12-01T23:20:28.431Z,102062.81
2022-12-01T23:23:04.515Z,102064.50
2022-12-01T23:25:37.244Z,102066.09
2022-12-01T23:28:11.070Z,102059.16
2022-12-01T23:30:46.095Z,102058.28
2022-12-01T23:33:21.738Z,102051.63
2022-12-01T23:35:58.812Z,102044.22
2022-12-01T23:38:33.970Z,102050.00
2022-12-01T23:41:10.489Z,102043.00
2022-12-01T23:43:48.609Z,102043.59
2022-12-01T23:46:21.646Z,102047.84
2022-12-01T23:48:55.234Z,102042.75
2022-12-01T23:51:33.611Z,102040.94
2022-12-01T23:54:09.362Z,102035.06
2022-12-01T23:56:40.767Z,102038.50
2022-12-01T23:59:16.940Z,102045.47
